createdAt,value
2022-12-11T00:00:39.690Z,26.13
2022-12-11T00:03:10.209Z,26.05
2022-12-11T00:05:40.431Z,24.50
2022-12-11T00:08:07.353Z,24.73
2022-12-11T00:10:37.642Z,26.08
2022-12-11T00:13:05.031Z,25.67
2022-12-11T00:15:31.952Z,26.20
2022-12-11T00:17:58.869Z,26.83
2022-12-11T00:20:25.755Z,26.60
2022-12-11T00:22:52.650Z,26.80
2022-12-11T00:25:19.511Z,26.90
2022-12-11T00:27:47.337Z,26.95
2022-12-11T00:30:14.832Z,28.60
2022-12-11T00:32:41.874Z,26.40
2022-12-11T00:35:09.547Z,27.58
2022-12-11T00:37:36.787Z,28.10
2022-12-11T00:40:03.970Z,27.15
2022-12-11T00:42:30.810Z,28.15
2022-12-11T00:44:58.010Z,28.02
2022-12-11T00:47:24.934Z,27.70
2022-12-11T00:49:52.380Z,28.63
2022-12-11T00:52:19.231Z,27.33
2022-12-11T00:54:46.089Z,28.88
2022-12-11T00:57:12.952Z,28.00
2022-12-11T00:59:39.830Z,27.85
2022-12-11T01:02:06.732Z,29.48
2022-12-11T01:04:36.032Z,29.20
2022-12-11T01:07:02.899Z,29.23
2022-12-11T01:09:48.780Z,27.85
2022-12-11T01:12:15.654Z,27.25
2022-12-11T01:14:42.529Z,28.70
2022-12-11T01:17:09.432Z,30.05
2022-12-11T01:19:36.518Z,28.45
2022-12-11T01:22:03.492Z,28.40
2022-12-11T01:24:30.369Z,27.08
2022-12-11T01:26:57.289Z,27.63
2022-12-11T01:29:24.110Z,28.65
2022-12-11T01:31:50.970Z,28.77
2022-12-11T01:34:17.813Z,27.70
2022-12-11T01:36:45.133Z,28.63
2022-12-11T01:39:12.292Z,27.67
2022-12-11T01:41:39.269Z,28.50
2022-12-11T01:44:29.051Z,27.83
2022-12-11T01:46:55.952Z,28.20
2022-12-11T01:49:24.152Z,27.85
2022-12-11T01:51:57.451Z,29.48
2022-12-11T01:54:24.431Z,28.42
2022-12-11T01:56:52.430Z,28.17
2022-12-11T01:59:21.070Z,29.35
2022-12-11T02:01:54.992Z,28.58
2022-12-11T02:04:21.911Z,29.38
2022-12-11T02:06:50.750Z,28.17
2022-12-11T02:09:32.110Z,29.05
2022-12-11T02:12:20.690Z,28.73
2022-12-11T02:15:00.030Z,28.25
2022-12-11T02:17:33.951Z,28.17
2022-12-11T02:20:06.816Z,28.80
2022-12-11T02:22:51.970Z,29.65
2022-12-11T02:25:31.370Z,28.63
2022-12-11T02:28:26.190Z,29.20
2022-12-11T02:30:59.999Z,29.60
2022-12-11T02:33:34.472Z,29.50
2022-12-11T02:36:01.309Z,29.48
2022-12-11T02:38:36.109Z,29.63
2022-12-11T02:41:03.070Z,28.65
2022-12-11T02:43:29.999Z,29.92
2022-12-11T02:45:56.908Z,29.70
2022-12-11T02:48:23.750Z,30.67
2022-12-11T02:50:53.171Z,28.55
2022-12-11T02:53:21.869Z,28.58
2022-12-11T02:55:50.570Z,28.52
2022-12-11T02:58:23.292Z,30.15
2022-12-11T03:00:50.392Z,28.98
2022-12-11T03:03:17.349Z,28.55
2022-12-11T03:05:44.209Z,29.38
2022-12-11T03:08:11.298Z,28.83
2022-12-11T03:10:38.291Z,29.08
2022-12-11T03:13:05.209Z,28.55
2022-12-11T03:15:58.216Z,29.85
2022-12-11T03:18:49.210Z,27.50
2022-12-11T03:21:24.674Z,28.75
2022-12-11T03:24:15.571Z,27.88
2022-12-11T03:26:56.001Z,26.92
2022-12-11T03:29:45.592Z,28.75
2022-12-11T03:32:20.131Z,28.08
2022-12-11T03:34:58.283Z,27.65
2022-12-11T03:37:26.436Z,27.88
2022-12-11T03:39:56.111Z,27.15
2022-12-11T03:42:23.010Z,28.13
2022-12-11T03:44:50.111Z,27.52
2022-12-11T03:47:21.070Z,28.05
2022-12-11T03:49:48.271Z,30.00
2022-12-11T03:52:15.129Z,27.52
2022-12-11T03:54:42.650Z,27.65
2022-12-11T03:57:10.369Z,28.13
2022-12-11T03:59:37.210Z,27.42
2022-12-11T04:02:11.102Z,27.95
2022-12-11T04:04:38.842Z,27.48
2022-12-11T04:07:05.751Z,27.02
2022-12-11T04:09:32.649Z,24.60
2022-12-11T04:11:59.676Z,25.30
2022-12-11T04:14:45.169Z,25.17
2022-12-11T04:17:12.211Z,24.48
2022-12-11T04:19:57.511Z,26.33
2022-12-11T04:22:42.591Z,23.23
2022-12-11T04:25:09.917Z,25.42
2022-12-11T04:27:49.049Z,24.92
2022-12-11T04:30:21.230Z,24.85
2022-12-11T04:32:48.110Z,25.92
2022-12-11T04:35:15.090Z,25.25
2022-12-11T04:37:41.973Z,24.70
2022-12-11T04:40:12.016Z,26.88
2022-12-11T04:42:38.930Z,25.25
2022-12-11T04:45:06.270Z,27.23
2022-12-11T04:47:33.170Z,24.98
2022-12-11T04:50:00.014Z,25.73
2022-12-11T04:52:26.889Z,25.15
2022-12-11T04:54:53.730Z,24.95
2022-12-11T04:57:21.723Z,26.10
2022-12-11T04:59:48.711Z,25.02
2022-12-11T05:02:16.069Z,25.27
2022-12-11T05:04:43.130Z,25.70
2022-12-11T05:07:10.050Z,24.38
2022-12-11T05:09:37.089Z,24.90
2022-12-11T05:12:04.009Z,23.65
2022-12-11T05:14:32.570Z,25.58
2022-12-11T05:16:59.913Z,24.45
2022-12-11T05:19:27.016Z,24.13
2022-12-11T05:21:53.890Z,22.60
2022-12-11T05:24:20.810Z,24.48
2022-12-11T05:26:47.651Z,24.65
2022-12-11T05:29:14.531Z,25.27
2022-12-11T05:31:41.680Z,25.13
2022-12-11T05:34:08.591Z,24.40
2022-12-11T05:36:35.530Z,24.10
2022-12-11T05:39:03.080Z,24.88
2022-12-11T05:41:31.589Z,24.60
2022-12-11T05:43:58.569Z,24.15
2022-12-11T05:46:26.857Z,24.85
2022-12-11T05:48:58.493Z,24.00
2022-12-11T05:51:25.431Z,23.38
2022-12-11T05:53:52.711Z,22.95
2022-12-11T05:56:21.690Z,23.83
2022-12-11T05:58:48.751Z,23.42
2022-12-11T06:01:23.510Z,23.25
2022-12-11T06:03:50.330Z,22.27
2022-12-11T06:06:17.389Z,23.42
2022-12-11T06:08:44.310Z,21.70
2022-12-11T06:11:13.090Z,22.13
2022-12-11T06:13:39.971Z,21.02
2022-12-11T06:16:07.388Z,20.13
2022-12-11T06:18:55.837Z,21.58
2022-12-11T06:21:30.066Z,21.17
2022-12-11T06:23:58.884Z,20.92
2022-12-11T06:26:25.932Z,20.20
2022-12-11T06:28:52.830Z,20.38
2022-12-11T06:31:19.865Z,19.73
2022-12-11T06:33:46.889Z,18.58
2022-12-11T06:36:16.350Z,18.70
2022-12-11T06:38:43.291Z,16.02
2022-12-11T06:41:10.289Z,15.73
2022-12-11T06:43:38.310Z,15.60
2022-12-11T06:46:09.733Z,16.23
2022-12-11T06:48:36.810Z,14.75
2022-12-11T06:51:07.752Z,14.55
2022-12-11T06:53:34.730Z,12.00
2022-12-11T06:56:06.071Z,11.85
2022-12-11T06:58:34.369Z,12.25
2022-12-11T07:01:02.214Z,11.48
2022-12-11T07:03:29.330Z,11.57
2022-12-11T07:06:01.354Z,9.18
2022-12-11T07:08:29.888Z,10.00
2022-12-11T07:11:09.029Z,9.70
2022-12-11T07:13:36.053Z,8.73
2022-12-11T07:16:04.663Z,9.32
2022-12-11T07:18:34.889Z,8.73
2022-12-11T07:21:01.709Z,7.97
2022-12-11T07:23:28.950Z,8.63
2022-12-11T07:25:56.349Z,7.65
2022-12-11T07:28:23.489Z,6.40
2022-12-11T07:30:50.371Z,6.25
2022-12-11T07:33:17.252Z,5.93
2022-12-11T07:35:44.711Z,6.20
2022-12-11T07:38:11.731Z,5.43
2022-12-11T07:40:38.629Z,6.05
2022-12-11T07:43:05.490Z,5.97
2022-12-11T07:45:32.553Z,5.75
2022-12-11T07:47:59.489Z,5.88
2022-12-11T07:50:26.312Z,5.85
2022-12-11T07:52:53.211Z,5.63
2022-12-11T07:55:20.129Z,5.53
2022-12-11T07:57:47.031Z,6.05
2022-12-11T08:00:14.332Z,5.05
2022-12-11T08:02:41.227Z,5.40
2022-12-11T08:05:09.043Z,5.70
2022-12-11T08:07:36.159Z,5.80
2022-12-11T08:10:03.991Z,5.40
2022-12-11T08:12:30.942Z,5.38
2022-12-11T08:14:57.884Z,5.63
2022-12-11T08:17:30.089Z,4.97
2022-12-11T08:19:58.802Z,6.00
2022-12-11T08:22:25.801Z,6.72
2022-12-11T08:24:52.680Z,6.82
2022-12-11T08:27:19.600Z,6.55
2022-12-11T08:29:47.619Z,7.10
2022-12-11T08:32:16.930Z,6.90
2022-12-11T08:34:44.375Z,7.97
2022-12-11T08:37:11.403Z,8.05
2022-12-11T08:39:38.278Z,7.65
2022-12-11T08:42:05.397Z,7.63
2022-12-11T08:44:32.270Z,8.63
2022-12-11T08:46:59.136Z,9.13
2022-12-11T08:49:28.676Z,8.88
2022-12-11T08:51:59.618Z,9.32
2022-12-11T08:54:26.489Z,9.30
2022-12-11T08:56:57.738Z,10.18
2022-12-11T08:59:25.887Z,9.50
2022-12-11T09:01:52.924Z,9.45
2022-12-11T09:04:19.815Z,10.43
2022-12-11T09:06:46.730Z,9.50
2022-12-11T09:09:13.629Z,9.73
2022-12-11T09:11:40.728Z,9.70
2022-12-11T09:14:08.367Z,9.23
2022-12-11T09:16:37.957Z,10.20
2022-12-11T09:19:04.970Z,9.40
2022-12-11T09:21:31.852Z,9.38
2022-12-11T09:23:59.976Z,9.13
2022-12-11T09:26:27.748Z,9.57
2022-12-11T09:28:55.129Z,9.38
2022-12-11T09:31:25.849Z,9.10
2022-12-11T09:33:55.218Z,9.00
2022-12-11T09:36:22.169Z,9.27
2022-12-11T09:38:49.130Z,8.35
2022-12-11T09:41:22.098Z,8.85
2022-12-11T09:44:11.529Z,8.80
2022-12-11T09:46:38.426Z,9.50
2022-12-11T09:49:05.450Z,9.77
2022-12-11T09:51:50.432Z,8.90
2022-12-11T09:54:17.392Z,9.65
2022-12-11T09:57:23.174Z,9.67
2022-12-11T10:00:11.552Z,8.50
2022-12-11T10:03:07.068Z,9.13
2022-12-11T10:05:52.837Z,9.68
2022-12-11T10:08:41.549Z,9.55
2022-12-11T10:11:45.609Z,9.52
2022-12-11T10:14:18.340Z,9.13
2022-12-11T10:16:53.268Z,9.57
2022-12-11T10:19:26.049Z,9.73
2022-12-11T10:21:52.911Z,9.63
2022-12-11T10:25:12.933Z,9.18
2022-12-11T10:27:33.812Z,10.20
2022-12-11T10:30:07.932Z,9.30
2022-12-11T10:32:46.270Z,9.70
2022-12-11T10:35:25.750Z,9.02
2022-12-11T10:37:55.549Z,8.77
2022-12-11T10:40:22.430Z,9.55
2022-12-11T10:42:53.870Z,8.73
2022-12-11T10:45:20.829Z,8.40
2022-12-11T10:47:47.692Z,8.25
2022-12-11T10:50:26.615Z,7.40
2022-12-11T10:52:53.550Z,7.10
2022-12-11T10:55:29.028Z,7.93
2022-12-11T10:58:04.035Z,7.93
2022-12-11T11:00:39.038Z,7.00
2022-12-11T11:03:24.669Z,7.70
2022-12-11T11:06:20.248Z,7.43
2022-12-11T11:08:52.033Z,6.65
2022-12-11T11:11:38.368Z,6.55
2022-12-11T11:14:24.048Z,6.80
2022-12-11T11:16:52.590Z,7.13
2022-12-11T11:19:29.509Z,6.00
2022-12-11T11:22:07.655Z,5.68
2022-12-11T11:24:40.068Z,5.18
2022-12-11T11:27:14.596Z,5.28
2022-12-11T11:29:41.429Z,5.03
2022-12-11T11:32:17.571Z,5.15
2022-12-11T11:34:44.409Z,5.45
2022-12-11T11:37:33.199Z,5.07
2022-12-11T11:40:21.710Z,4.50
2022-12-11T11:43:39.833Z,5.27
2022-12-11T11:46:27.467Z,4.47
2022-12-11T11:48:59.495Z,4.22
2022-12-11T11:52:09.903Z,4.20
2022-12-11T11:54:55.457Z,4.07
2022-12-11T11:57:39.189Z,4.13
2022-12-11T12:00:14.714Z,4.38
2022-12-11T12:02:41.878Z,3.60
2022-12-11T12:05:15.145Z,4.07
2022-12-11T12:08:00.657Z,4.30
2022-12-11T12:10:36.892Z,3.17
2022-12-11T12:13:54.564Z,4.00
2022-12-11T12:17:00.132Z,3.70
2022-12-11T12:19:32.812Z,3.33
2022-12-11T12:22:01.073Z,3.33
2022-12-11T12:24:41.322Z,3.70
2022-12-11T12:27:52.879Z,3.15
2022-12-11T12:30:23.042Z,3.50
2022-12-11T12:33:06.142Z,3.25
2022-12-11T12:35:37.709Z,3.58
2022-12-11T12:38:44.005Z,3.63
2022-12-11T12:41:35.398Z,3.78
2022-12-11T12:44:21.005Z,3.17
2022-12-11T12:47:20.368Z,3.40
2022-12-11T12:49:48.766Z,2.95
2022-12-11T12:52:35.387Z,3.70
2022-12-11T12:55:24.037Z,3.20
2022-12-11T12:58:05.732Z,3.17
2022-12-11T13:00:34.124Z,3.28
2022-12-11T13:03:16.049Z,3.00
2022-12-11T13:05:45.074Z,3.07
2022-12-11T13:08:12.620Z,2.83
2022-12-11T13:10:41.867Z,3.22
2022-12-11T13:13:35.534Z,3.40
2022-12-11T13:16:21.123Z,2.42
2022-12-11T13:18:48.386Z,3.00
2022-12-11T13:21:34.812Z,3.28
2022-12-11T13:24:28.214Z,2.85
2022-12-11T13:26:55.510Z,2.72
2022-12-11T13:29:39.474Z,2.95
2022-12-11T13:32:09.206Z,2.93
2022-12-11T13:34:43.100Z,3.08
2022-12-11T13:37:33.168Z,2.40
2022-12-11T13:40:04.304Z,2.90
2022-12-11T13:42:49.576Z,2.75
2022-12-11T13:45:27.388Z,3.03
2022-12-11T13:47:56.705Z,3.30
2022-12-11T13:50:29.259Z,3.10
2022-12-11T13:52:57.764Z,2.90
2022-12-11T13:55:34.457Z,3.17
2022-12-11T13:58:01.413Z,3.57
2022-12-11T14:00:33.114Z,3.58
2022-12-11T14:03:02.454Z,3.20
2022-12-11T14:05:29.364Z,3.55
2022-12-11T14:07:57.230Z,3.03
2022-12-11T14:10:25.582Z,4.00
2022-12-11T14:13:22.590Z,3.35
2022-12-11T14:15:49.450Z,3.38
2022-12-11T14:18:27.701Z,3.20
2022-12-11T14:21:21.468Z,3.50
2022-12-11T14:23:58.736Z,3.40
2022-12-11T14:26:37.972Z,3.80
2022-12-11T14:29:05.637Z,3.38
2022-12-11T14:31:35.756Z,3.58
2022-12-11T14:34:19.242Z,3.70
2022-12-11T14:36:46.505Z,3.97
2022-12-11T14:39:50.521Z,3.42
2022-12-11T14:42:21.828Z,3.75
2022-12-11T14:44:49.957Z,3.38
2022-12-11T14:47:22.112Z,3.70
2022-12-11T14:49:51.808Z,3.20
2022-12-11T14:52:20.624Z,3.63
2022-12-11T14:55:00.579Z,3.60
2022-12-11T14:57:28.913Z,3.47
2022-12-11T14:59:55.805Z,3.75
2022-12-11T15:02:33.992Z,3.67
2022-12-11T15:05:19.523Z,4.22
2022-12-11T15:08:00.834Z,3.90
2022-12-11T15:10:32.072Z,4.10
2022-12-11T15:12:58.909Z,3.67
2022-12-11T15:15:25.799Z,3.63
2022-12-11T15:17:53.153Z,3.80
2022-12-11T15:20:27.996Z,3.70
2022-12-11T15:22:54.976Z,3.92
2022-12-11T15:25:23.389Z,3.88
2022-12-11T15:27:57.179Z,4.23
2022-12-11T15:30:27.323Z,3.60
2022-12-11T15:33:12.574Z,3.50
2022-12-11T15:35:39.929Z,3.53
2022-12-11T15:38:06.760Z,3.80
2022-12-11T15:40:33.598Z,3.47
2022-12-11T15:43:01.529Z,3.47
2022-12-11T15:45:29.083Z,3.83
2022-12-11T15:47:56.141Z,3.63
2022-12-11T15:50:23.798Z,3.60
2022-12-11T15:52:51.508Z,3.87
2022-12-11T15:55:18.675Z,3.67
2022-12-11T15:57:47.294Z,3.67
2022-12-11T16:00:14.912Z,3.65
2022-12-11T16:02:41.968Z,3.78
2022-12-11T16:05:09.405Z,3.55
2022-12-11T16:07:38.180Z,3.80
2022-12-11T16:10:06.214Z,3.80
2022-12-11T16:12:33.193Z,3.10
2022-12-11T16:15:00.076Z,3.90
2022-12-11T16:17:27.059Z,3.40
2022-12-11T16:19:54.323Z,3.58
2022-12-11T16:22:21.302Z,3.42
2022-12-11T16:24:48.273Z,2.60
2022-12-11T16:27:21.410Z,3.80
2022-12-11T16:29:49.988Z,3.38
2022-12-11T16:32:17.194Z,3.30
2022-12-11T16:34:44.165Z,3.35
2022-12-11T16:37:11.459Z,3.20
2022-12-11T16:39:38.545Z,3.47
2022-12-11T16:42:06.063Z,2.70
2022-12-11T16:44:33.072Z,2.97
2022-12-11T16:47:00.047Z,3.13
2022-12-11T16:49:27.062Z,2.85
2022-12-11T16:51:54.053Z,3.03
2022-12-11T16:54:20.990Z,2.88
2022-12-11T16:56:48.343Z,2.97
2022-12-11T16:59:15.228Z,3.10
2022-12-11T17:01:42.237Z,2.70
2022-12-11T17:04:10.230Z,2.47
2022-12-11T17:06:37.099Z,2.38
2022-12-11T17:09:04.076Z,2.47
2022-12-11T17:11:30.976Z,2.72
2022-12-11T17:13:58.533Z,2.22
2022-12-11T17:16:26.571Z,2.22
2022-12-11T17:18:53.775Z,2.42
2022-12-11T17:21:21.020Z,2.33
2022-12-11T17:23:48.076Z,2.45
2022-12-11T17:26:15.653Z,2.33
2022-12-11T17:28:43.177Z,2.17
2022-12-11T17:31:14.505Z,2.77
2022-12-11T17:33:41.552Z,2.78
2022-12-11T17:36:09.071Z,2.17
2022-12-11T17:38:36.031Z,2.60
2022-12-11T17:41:11.416Z,2.70
2022-12-11T17:43:41.922Z,2.50
2022-12-11T17:46:10.825Z,2.75
2022-12-11T17:48:37.918Z,2.20
2022-12-11T17:51:06.353Z,2.55
2022-12-11T17:53:33.469Z,2.35
2022-12-11T17:56:01.088Z,2.60
2022-12-11T17:58:28.094Z,2.88
2022-12-11T18:00:55.894Z,2.72
2022-12-11T18:03:22.845Z,2.80
2022-12-11T18:05:51.420Z,3.30
2022-12-11T18:08:20.955Z,2.90
2022-12-11T18:10:47.878Z,3.25
2022-12-11T18:13:15.133Z,3.33
2022-12-11T18:15:42.201Z,3.10
2022-12-11T18:18:09.488Z,3.67
2022-12-11T18:20:37.555Z,4.07
2022-12-11T18:23:04.921Z,3.70
2022-12-11T18:25:31.886Z,2.95
2022-12-11T18:27:59.863Z,3.17
2022-12-11T18:30:26.872Z,3.03
2022-12-11T18:32:53.882Z,3.60
2022-12-11T18:35:21.471Z,2.78
2022-12-11T18:37:48.514Z,2.72
2022-12-11T18:40:15.506Z,2.92
2022-12-11T18:42:43.929Z,3.00
2022-12-11T18:45:11.417Z,2.63
2022-12-11T18:47:38.595Z,2.20
2022-12-11T18:50:08.175Z,2.47
2022-12-11T18:52:35.593Z,2.60
2022-12-11T18:55:02.636Z,2.63
2022-12-11T18:57:29.499Z,2.30
2022-12-11T18:59:56.354Z,2.30
2022-12-11T19:02:23.354Z,2.33
2022-12-11T19:04:50.256Z,2.38
2022-12-11T19:07:17.174Z,2.30
2022-12-11T19:09:48.120Z,2.30
2022-12-11T19:12:15.454Z,2.22
2022-12-11T19:14:42.295Z,2.40
2022-12-11T19:17:09.080Z,2.53
2022-12-11T19:19:36.275Z,2.40
2022-12-11T19:22:03.539Z,1.77
2022-12-11T19:24:30.576Z,2.45
2022-12-11T19:26:57.666Z,2.30
2022-12-11T19:29:26.726Z,2.45
2022-12-11T19:31:55.245Z,2.17
2022-12-11T19:34:22.578Z,2.27
2022-12-11T19:36:49.543Z,1.95
2022-12-11T19:39:16.476Z,2.80
2022-12-11T19:41:43.437Z,3.17
2022-12-11T19:44:10.321Z,2.55
2022-12-11T19:46:37.355Z,2.50
2022-12-11T19:49:04.355Z,2.60
2022-12-11T19:51:33.976Z,2.30
2022-12-11T19:54:03.024Z,2.45
2022-12-11T19:56:29.953Z,2.50
2022-12-11T19:58:56.856Z,2.20
2022-12-11T20:01:26.496Z,2.40
2022-12-11T20:03:53.781Z,2.25
2022-12-11T20:06:20.622Z,2.20
2022-12-11T20:08:47.643Z,2.40
2022-12-11T20:11:18.346Z,2.20
2022-12-11T20:13:46.114Z,2.45
2022-12-11T20:16:13.278Z,2.58
2022-12-11T20:18:40.194Z,2.30
2022-12-11T20:21:08.878Z,2.15
2022-12-11T20:23:35.976Z,2.58
2022-12-11T20:26:07.836Z,2.15
2022-12-11T20:28:34.707Z,2.33
2022-12-11T20:31:20.019Z,2.50
2022-12-11T20:33:48.854Z,2.45
2022-12-11T20:36:16.450Z,2.63
2022-12-11T20:38:43.544Z,2.20
2022-12-11T20:41:11.569Z,2.05
2022-12-11T20:43:38.369Z,2.30
2022-12-11T20:46:06.581Z,2.30
2022-12-11T20:48:33.561Z,2.20
2022-12-11T20:51:04.156Z,2.33
2022-12-11T20:53:31.153Z,2.40
2022-12-11T20:55:58.114Z,2.35
2022-12-11T20:58:25.425Z,2.10
2022-12-11T21:00:52.483Z,2.38
2022-12-11T21:03:19.537Z,2.30
2022-12-11T21:05:46.653Z,2.30
2022-12-11T21:08:13.684Z,2.08
2022-12-11T21:10:44.432Z,1.90
2022-12-11T21:13:11.520Z,2.23
2022-12-11T21:15:39.428Z,2.20
2022-12-11T21:18:07.037Z,2.17
2022-12-11T21:20:34.222Z,2.00
2022-12-11T21:23:01.606Z,2.15
2022-12-11T21:25:28.615Z,1.83
2022-12-11T21:27:55.663Z,2.08
2022-12-11T21:30:22.694Z,2.03
2022-12-11T21:32:49.612Z,1.70
2022-12-11T21:35:16.811Z,2.53
2022-12-11T21:37:43.938Z,1.97
2022-12-11T21:40:11.374Z,2.13
2022-12-11T21:42:38.376Z,2.40
2022-12-11T21:47:52.821Z,2.05
2022-12-11T21:50:19.739Z,2.13
2022-12-11T21:52:46.742Z,2.08
2022-12-11T21:55:14.149Z,2.38
2022-12-11T21:57:41.217Z,2.40
2022-12-11T22:00:09.549Z,2.10
2022-12-11T22:02:40.845Z,1.80
2022-12-11T22:05:09.095Z,2.30
2022-12-11T22:07:36.221Z,1.98
2022-12-11T22:10:04.056Z,1.90
2022-12-11T22:12:30.932Z,1.98
2022-12-11T22:14:57.836Z,2.00
2022-12-11T22:17:24.802Z,2.08
2022-12-11T22:19:54.436Z,1.83
2022-12-11T22:22:21.273Z,1.92
2022-12-11T22:24:48.238Z,2.03
2022-12-11T22:27:17.907Z,1.70
2022-12-11T22:29:48.929Z,1.77
2022-12-11T22:32:15.755Z,1.73
2022-12-11T22:34:42.607Z,1.70
2022-12-11T22:37:09.482Z,1.90
2022-12-11T22:39:36.365Z,2.03
2022-12-11T22:42:03.436Z,1.70
2022-12-11T22:44:30.253Z,1.75
2022-12-11T22:46:57.604Z,1.60
2022-12-11T22:49:24.471Z,1.83
2022-12-11T22:51:51.336Z,1.40
2022-12-11T22:54:18.199Z,1.63
2022-12-11T22:56:45.153Z,1.50
2022-12-11T22:59:12.142Z,1.70
2022-12-11T23:01:39.014Z,1.25
2022-12-11T23:04:06.132Z,1.40
2022-12-11T23:06:33.056Z,1.50
2022-12-11T23:09:00.505Z,1.60
2022-12-11T23:11:36.408Z,1.25
2022-12-11T23:14:04.498Z,1.63
2022-12-11T23:16:31.380Z,1.30
2022-12-11T23:18:58.395Z,1.40
2022-12-11T23:21:25.763Z,1.30
2022-12-11T23:23:52.596Z,1.70
2022-12-11T23:26:19.756Z,1.58
2022-12-11T23:28:46.751Z,1.33
2022-12-11T23:31:13.765Z,1.27
2022-12-11T23:33:40.756Z,1.30
2022-12-11T23:36:08.111Z,1.40
2022-12-11T23:38:35.015Z,1.50
2022-12-11T23:41:02.392Z,1.70
2022-12-11T23:43:29.282Z,1.52
2022-12-11T23:45:56.148Z,1.60
2022-12-11T23:48:23.114Z,1.25
2022-12-11T23:50:49.957Z,1.30
2022-12-11T23:53:16.791Z,1.20
2022-12-11T23:55:44.398Z,1.30
2022-12-11T23:58:11.353Z,1.30
